Time;durP1;ratioP1;P1;durP2;ratioP2;P2;SDS_P1;SDS_P2;PMS_P1;PMS_P2;Temp;Humidity;BMP_temperature;BMP_pressure;BME280_temperature;BME280_humidity;BME280_pressure;Samples;Min_cycle;Max_cycle;Signal;HPM_P1;HPM_P2
2021/03/20 00:02:23;;;;;;;8.47;5.30;;;2.50;77.20;;;;;;5047550;28;20466;-43
2021/03/20 00:04:50;;;;;;;6.60;5.10;;;2.40;77.10;;;;;;5052790;28;20576;-43
2021/03/20 00:07:16;;;;;;;9.17;5.60;;;2.40;77.10;;;;;;5050408;28;20466;-42
2021/03/20 00:09:42;;;;;;;8.17;5.17;;;2.40;77.20;;;;;;5049751;28;20473;-43
2021/03/20 00:12:09;;;;;;;7.80;5.67;;;2.40;77.10;;;;;;5014633;28;20485;-43
2021/03/20 00:14:36;;;;;;;5.23;4.50;;;2.40;77.20;;;;;;5043640;28;20461;-42
2021/03/20 00:17:03;;;;;;;6.90;4.70;;;2.40;77.20;;;;;;5049178;28;21081;-43
2021/03/20 00:19:29;;;;;;;6.10;5.30;;;2.40;77.20;;;;;;5050185;28;20481;-43
2021/03/20 00:21:55;;;;;;;6.20;5.23;;;2.40;77.20;;;;;;5047026;28;20833;-42
2021/03/20 00:24:21;;;;;;;6.37;4.97;;;2.40;77.50;;;;;;5061968;28;20458;-43
2021/03/20 00:26:48;;;;;;;7.13;5.00;;;2.30;77.50;;;;;;5049468;28;20471;-43
2021/03/20 00:29:14;;;;;;;7.40;5.07;;;2.30;77.60;;;;;;5049220;28;20911;-42
2021/03/20 00:31:40;;;;;;;6.50;4.93;;;2.30;77.70;;;;;;5022805;28;20513;-43
2021/03/20 00:34:07;;;;;;;4.90;4.37;;;2.30;77.60;;;;;;5063607;28;20550;-43
2021/03/20 00:36:34;;;;;;;5.60;4.63;;;2.30;77.50;;;;;;5048513;28;20466;-43
2021/03/20 00:39:07;;;;;;;5.10;4.60;;;2.30;77.50;;;;;;5049156;28;20465;-41
2021/03/20 00:41:35;;;;;;;6.00;5.20;;;2.30;77.50;;;;;;5063849;28;20469;-43
2021/03/20 00:44:02;;;;;;;8.40;4.97;;;2.30;77.70;;;;;;5062231;28;20541;-43
2021/03/20 00:46:31;;;;;;;12.03;7.07;;;2.30;77.80;;;;;;5046748;28;20821;-43
2021/03/20 00:48:57;;;;;;;10.23;7.20;;;2.30;77.90;;;;;;5049086;28;20459;-43
2021/03/20 00:51:24;;;;;;;5.93;5.10;;;2.30;78.00;;;;;;5062779;28;20483;-43
2021/03/20 00:53:50;;;;;;;7.40;5.07;;;2.30;78.10;;;;;;5052688;28;20461;-43
2021/03/20 00:56:16;;;;;;;7.87;6.40;;;2.30;78.10;;;;;;5047015;28;20455;-44
2021/03/20 00:58:42;;;;;;;5.80;5.10;;;2.30;78.10;;;;;;5062458;28;21008;-43
2021/03/20 01:01:12;;;;;;;6.30;5.60;;;2.30;78.20;;;;;;5047705;28;20465;-44
2021/03/20 01:03:39;;;;;;;5.20;4.70;;;2.30;78.10;;;;;;5048923;28;20482;-43
2021/03/20 01:06:11;;;;;;;6.63;5.30;;;2.30;78.20;;;;;;5048266;28;20876;-44
2021/03/20 01:08:37;;;;;;;6.77;5.50;;;2.30;78.10;;;;;;5062663;28;20459;-43
2021/03/20 01:11:05;;;;;;;5.77;5.17;;;2.30;78.10;;;;;;5064450;28;20462;-43
2021/03/20 01:13:31;;;;;;;16.40;7.20;;;2.30;78.20;;;;;;5048164;28;20465;-43
2021/03/20 01:15:58;;;;;;;7.00;6.20;;;2.20;78.20;;;;;;5062677;28;20514;-43
2021/03/20 01:18:24;;;;;;;8.87;6.40;;;2.20;78.30;;;;;;5047420;28;20475;-43
2021/03/20 01:20:51;;;;;;;7.17;6.20;;;2.20;78.30;;;;;;5046316;28;20496;-43
2021/03/20 01:23:18;;;;;;;10.27;7.20;;;2.20;78.30;;;;;;5049173;28;20895;-43
2021/03/20 01:25:44;;;;;;;9.77;7.07;;;2.20;78.40;;;;;;5061454;28;20474;-43
2021/03/20 01:28:11;;;;;;;5.70;5.20;;;2.20;78.40;;;;;;5047469;28;20884;-43
2021/03/20 01:30:41;;;;;;;7.27;5.40;;;2.20;78.50;;;;;;5062395;28;20525;-42
2021/03/20 01:33:08;;;;;;;9.70;6.40;;;2.20;78.50;;;;;;5046490;28;20502;-42
2021/03/20 01:35:44;;;;;;;7.40;5.40;;;2.20;78.50;;;;;;5047214;28;20822;-42
2021/03/20 01:38:10;;;;;;;6.87;5.47;;;2.20;78.40;;;;;;5063837;28;20473;-42
2021/03/20 01:40:43;;;;;;;8.20;5.77;;;2.20;78.50;;;;;;5049044;28;20820;-43
2021/03/20 01:43:13;;;;;;;6.40;5.40;;;2.20;78.50;;;;;;5046964;28;20549;-43
2021/03/20 01:45:40;;;;;;;11.73;6.87;;;2.20;78.50;;;;;;5047340;28;20480;-42
2021/03/20 01:48:11;;;;;;;7.70;4.87;;;2.10;78.50;;;;;;5048294;28;20971;-43
2021/03/20 01:50:51;;;;;;;8.47;4.60;;;2.10;78.60;;;;;;5046890;28;20469;-42
2021/03/20 01:53:41;;;;;;;5.97;4.83;;;2.10;78.60;;;;;;5044249;28;20486;-42
2021/03/20 01:56:12;;;;;;;8.23;5.67;;;2.10;78.60;;;;;;5047990;28;20508;-42
2021/03/20 01:58:41;;;;;;;7.17;4.73;;;2.10;78.60;;;;;;5046675;28;21074;-44
2021/03/20 02:01:41;;;;;;;6.70;4.73;;;2.10;78.60;;;;;;5049468;28;20988;-43
2021/03/20 02:04:09;;;;;;;5.27;4.20;;;2.10;78.60;;;;;;5044994;28;20463;-43
2021/03/20 02:06:36;;;;;;;6.20;5.07;;;2.10;78.60;;;;;;5046351;28;20811;-42
2021/03/20 02:09:07;;;;;;;7.20;5.03;;;2.10;78.60;;;;;;5046728;28;20465;-43
2021/03/20 02:11:46;;;;;;;6.30;4.63;;;2.10;78.60;;;;;;5045405;28;20490;-42
2021/03/20 02:14:31;;;;;;;4.83;4.00;;;2.10;78.60;;;;;;5045285;28;20500;-41
2021/03/20 02:17:24;;;;;;;5.30;4.50;;;2.10;78.70;;;;;;5045967;28;20470;-42
2021/03/20 02:20:11;;;;;;;4.37;3.97;;;2.10;78.70;;;;;;5044526;28;20467;-43
2021/03/20 02:23:10;;;;;;;4.73;4.10;;;2.10;78.50;;;;;;5046979;28;20454;-42
2021/03/20 02:25:39;;;;;;;6.63;4.40;;;2.10;78.50;;;;;;5046613;28;20969;-43
2021/03/20 02:28:27;;;;;;;5.93;3.97;;;2.10;78.40;;;;;;5046510;28;20473;-43
2021/03/20 02:31:30;;;;;;;4.53;4.13;;;2.10;78.20;;;;;;5045894;28;20474;-43
2021/03/20 02:34:15;;;;;;;5.70;4.20;;;2.10;78.10;;;;;;5063372;28;20525;-43
2021/03/20 02:37:02;;;;;;;9.23;4.03;;;2.00;77.90;;;;;;5062393;28;20970;-43
2021/03/20 02:40:25;;;;;;;5.30;4.57;;;2.00;77.90;;;;;;5046264;28;20466;-42
2021/03/20 02:42:58;;;;;;;4.30;3.93;;;2.00;77.60;;;;;;5028313;28;20558;-43
2021/03/20 02:45:36;;;;;;;4.10;3.70;;;2.00;77.50;;;;;;5029831;28;20866;-43
2021/03/20 02:48:39;;;;;;;4.47;4.07;;;2.00;77.40;;;;;;5038217;28;20463;-43
2021/03/20 02:51:23;;;;;;;4.23;3.83;;;2.00;77.30;;;;;;5022630;28;20531;-43
2021/03/20 02:54:11;;;;;;;6.10;4.03;;;2.00;77.30;;;;;;5044986;28;20488;-43
2021/03/20 02:56:57;;;;;;;6.70;5.30;;;1.90;77.50;;;;;;5046085;28;20455;-42
2021/03/20 02:59:29;;;;;;;6.17;4.93;;;1.90;77.60;;;;;;5047513;28;20457;-43
2021/03/20 03:02:00;;;;;;;8.17;4.50;;;1.90;77.60;;;;;;5045636;28;20569;-43
2021/03/20 03:04:32;;;;;;;4.70;3.73;;;1.80;77.70;;;;;;5047953;28;20648;-43
2021/03/20 03:07:07;;;;;;;5.97;4.90;;;1.90;77.70;;;;;;5046059;28;20577;-43
2021/03/20 03:09:41;;;;;;;4.50;4.10;;;1.80;77.70;;;;;;5046392;28;20561;-43
2021/03/20 03:12:15;;;;;;;6.07;4.40;;;1.80;77.80;;;;;;5046451;28;20482;-42
2021/03/20 03:15:01;;;;;;;6.13;4.47;;;1.80;77.90;;;;;;5042188;28;20461;-41
2021/03/20 03:17:29;;;;;;;4.63;3.90;;;1.80;77.90;;;;;;5061611;28;20485;-42
2021/03/20 03:20:02;;;;;;;6.60;5.50;;;1.80;78.00;;;;;;5046173;28;20482;-41
2021/03/20 03:22:43;;;;;;;4.30;3.90;;;1.80;78.20;;;;;;5046759;28;20450;-41
2021/03/20 03:25:13;;;;;;;5.70;4.07;;;1.80;78.50;;;;;;5042856;28;20494;-41
2021/03/20 03:27:45;;;;;;;6.80;5.07;;;1.80;78.60;;;;;;5044809;28;20466;-41
2021/03/20 03:30:15;;;;;;;7.00;4.77;;;1.80;78.70;;;;;;5048219;28;20473;-41
2021/03/20 03:32:55;;;;;;;5.87;4.70;;;1.90;78.90;;;;;;5047226;28;20493;-41
2021/03/20 03:35:35;;;;;;;5.40;3.97;;;1.90;78.90;;;;;;5048726;28;20991;-41
2021/03/20 03:38:15;;;;;;;6.67;4.77;;;1.90;78.80;;;;;;5045811;28;20458;-41
2021/03/20 03:40:49;;;;;;;5.27;4.50;;;1.90;78.80;;;;;;5043926;28;20464;-41
2021/03/20 03:43:18;;;;;;;5.20;3.63;;;1.90;78.70;;;;;;5046167;28;20508;-41
2021/03/20 03:45:47;;;;;;;4.40;4.00;;;1.90;78.80;;;;;;5049401;28;20463;-41
2021/03/20 03:48:15;;;;;;;5.70;4.40;;;2.00;78.60;;;;;;5049757;28;20560;-41
2021/03/20 03:50:43;;;;;;;6.13;4.47;;;2.00;78.50;;;;;;5047110;28;20474;-41
2021/03/20 03:53:10;;;;;;;6.80;4.90;;;2.00;78.40;;;;;;5048322;28;20584;-41
2021/03/20 03:55:38;;;;;;;5.30;4.70;;;2.00;78.40;;;;;;5050825;28;20446;-41
2021/03/20 03:58:35;;;;;;;4.33;3.93;;;2.00;78.30;;;;;;5050128;28;20452;-41
2021/03/20 04:01:32;;;;;;;5.37;3.83;;;2.00;78.30;;;;;;5060126;28;20458;-41
2021/03/20 04:04:10;;;;;;;5.00;4.20;;;2.10;78.10;;;;;;5049937;28;20500;-41
2021/03/20 04:06:42;;;;;;;5.80;4.03;;;2.00;77.80;;;;;;5047235;28;20452;-41
2021/03/20 04:09:24;;;;;;;5.80;3.87;;;2.10;77.70;;;;;;5051185;28;20465;-41
2021/03/20 04:12:18;;;;;;;4.80;3.80;;;2.10;77.50;;;;;;5048652;28;20513;-41
2021/03/20 04:15:28;;;;;;;4.30;3.87;;;2.00;77.50;;;;;;5048783;28;20469;-41
2021/03/20 04:18:34;;;;;;;7.30;3.60;;;2.00;77.30;;;;;;5032108;28;20510;-41
2021/03/20 04:21:40;;;;;;;4.57;3.23;;;2.00;77.20;;;;;;5028181;28;20463;-41
2021/03/20 04:24:28;;;;;;;4.63;3.57;;;2.00;77.30;;;;;;5050236;28;20916;-41
2021/03/20 04:27:04;;;;;;;4.60;3.90;;;1.90;77.10;;;;;;5049637;28;20995;-41
2021/03/20 04:29:49;;;;;;;7.47;4.57;;;1.90;77.10;;;;;;5065619;28;20454;-41
2021/03/20 04:32:22;;;;;;;4.57;3.93;;;1.90;77.20;;;;;;5051257;28;20478;-41
2021/03/20 04:34:57;;;;;;;6.40;4.07;;;1.90;77.30;;;;;;5049078;28;20454;-41
2021/03/20 04:37:28;;;;;;;5.57;5.00;;;1.90;77.30;;;;;;5046445;28;20451;-41
2021/03/20 04:39:56;;;;;;;4.83;3.83;;;1.80;77.40;;;;;;5050930;28;20462;-41
2021/03/20 04:42:28;;;;;;;5.83;4.70;;;1.80;77.40;;;;;;5048723;28;21017;-41
2021/03/20 04:44:59;;;;;;;5.20;4.37;;;1.80;77.40;;;;;;5064878;28;20469;-41
2021/03/20 04:47:27;;;;;;;6.40;4.50;;;1.80;77.70;;;;;;5049188;28;20466;-40
2021/03/20 04:49:55;;;;;;;5.23;4.30;;;1.80;77.80;;;;;;5050630;28;20821;-41
2021/03/20 04:52:24;;;;;;;5.53;4.40;;;1.80;77.90;;;;;;5049703;28;20484;-40
2021/03/20 04:54:51;;;;;;;6.60;4.17;;;1.80;78.20;;;;;;5064610;28;20962;-41
2021/03/20 04:57:37;;;;;;;7.17;4.60;;;1.80;78.20;;;;;;5048828;28;20549;-41
2021/03/20 05:00:11;;;;;;;5.83;4.97;;;1.80;78.30;;;;;;5049582;28;21062;-40
2021/03/20 05:03:13;;;;;;;5.57;4.17;;;1.80;78.40;;;;;;5047773;28;20458;-41
2021/03/20 05:05:50;;;;;;;3.57;3.27;;;1.80;78.50;;;;;;5041224;28;21009;-41
2021/03/20 05:08:41;;;;;;;5.67;4.00;;;1.80;78.50;;;;;;5042471;28;20477;-41
2021/03/20 05:11:33;;;;;;;4.23;3.77;;;1.80;78.60;;;;;;5049278;28;20531;-41
2021/03/20 05:14:11;;;;;;;4.77;3.70;;;1.90;78.40;;;;;;5046827;28;20460;-40
2021/03/20 05:16:39;;;;;;;7.50;4.50;;;1.90;78.30;;;;;;5050244;28;20512;-41
2021/03/20 05:19:06;;;;;;;4.90;3.80;;;2.00;78.20;;;;;;5047009;28;20470;-41
2021/03/20 05:21:39;;;;;;;4.47;3.03;;;2.00;77.90;;;;;;5046141;28;20539;-41
2021/03/20 05:24:15;;;;;;;6.57;3.00;;;2.00;77.50;;;;;;5048935;28;20450;-40
2021/03/20 05:26:43;;;;;;;4.23;3.13;;;2.10;77.40;;;;;;5058619;28;20987;-41
2021/03/20 05:29:09;;;;;;;6.53;4.17;;;2.10;77.10;;;;;;5048634;28;20557;-41
2021/03/20 05:31:38;;;;;;;3.80;3.20;;;2.20;76.90;;;;;;5047856;28;20454;-41
2021/03/20 05:34:17;;;;;;;3.93;3.40;;;2.20;76.80;;;;;;5047245;28;20526;-41
2021/03/20 05:36:43;;;;;;;4.40;3.13;;;2.20;76.50;;;;;;5049967;28;20465;-41
2021/03/20 05:39:12;;;;;;;5.70;3.60;;;2.30;76.10;;;;;;5065355;28;20952;-40
2021/03/20 05:42:29;;;;;;;3.30;3.00;;;2.30;75.70;;;;;;5049163;28;20454;-41
2021/03/20 05:44:58;;;;;;;4.67;3.77;;;2.30;75.50;;;;;;5036209;28;20991;-41
2021/03/20 05:47:37;;;;;;;3.20;2.50;;;2.40;75.10;;;;;;5046596;28;20465;-41
2021/03/20 05:50:12;;;;;;;5.53;3.50;;;2.40;75.10;;;;;;5048172;28;20516;-41
2021/03/20 05:53:09;;;;;;;5.20;2.80;;;2.40;74.40;;;;;;5046093;28;20478;-41
2021/03/20 05:55:55;;;;;;;2.63;2.10;;;2.40;73.60;;;;;;5047379;28;20467;-40
2021/03/20 05:58:34;;;;;;;2.90;2.23;;;2.40;72.90;;;;;;5047208;28;20457;-41
2021/03/20 06:01:38;;;;;;;4.43;1.93;;;2.40;72.60;;;;;;5047410;28;20450;-41
2021/03/20 06:04:23;;;;;;;2.70;2.17;;;2.40;71.90;;;;;;5048348;28;20885;-41
2021/03/20 06:07:26;;;;;;;6.50;2.60;;;2.40;71.60;;;;;;5048793;28;20481;-41
2021/03/20 06:10:17;;;;;;;2.50;2.07;;;2.40;71.30;;;;;;5048983;28;20991;-41
2021/03/20 06:13:05;;;;;;;3.30;1.80;;;2.40;71.30;;;;;;5049780;28;21018;-41
2021/03/20 06:15:46;;;;;;;3.57;2.23;;;2.40;71.10;;;;;;5046405;28;20572;-40
2021/03/20 06:18:52;;;;;;;2.87;1.87;;;2.40;71.20;;;;;;5048310;28;20479;-41
2021/03/20 06:21:46;;;;;;;1.90;1.67;;;2.50;70.90;;;;;;5047468;28;20460;-41
2021/03/20 06:24:42;;;;;;;3.03;2.07;;;2.50;70.70;;;;;;5048536;28;20458;-41
2021/03/20 06:27:14;;;;;;;3.03;1.90;;;2.50;70.30;;;;;;5048185;28;20512;-41
2021/03/20 06:29:58;;;;;;;2.03;1.63;;;2.50;70.00;;;;;;5060646;28;20458;-40
2021/03/20 06:32:34;;;;;;;2.77;1.90;;;2.50;70.10;;;;;;5043603;28;20470;-40
2021/03/20 06:35:25;;;;;;;3.90;2.70;;;2.60;69.80;;;;;;5047296;28;20457;-41
2021/03/20 06:37:58;;;;;;;2.60;2.03;;;2.60;69.50;;;;;;5046680;28;20450;-41
2021/03/20 06:40:43;;;;;;;4.07;2.50;;;2.70;69.70;;;;;;5047497;28;20451;-41
2021/03/20 06:43:13;;;;;;;2.33;2.13;;;2.80;69.90;;;;;;5045581;28;20454;-40
2021/03/20 06:45:40;;;;;;;2.80;2.07;;;2.80;69.40;;;;;;5049258;28;20450;-41
2021/03/20 06:48:23;;;;;;;3.87;1.90;;;2.80;69.00;;;;;;5048551;28;20741;-40
2021/03/20 06:50:56;;;;;;;3.60;1.60;;;2.80;68.60;;;;;;5063497;28;20502;-41
2021/03/20 06:53:35;;;;;;;3.57;2.10;;;3.00;67.90;;;;;;5045807;28;20885;-40
2021/03/20 06:56:04;;;;;;;3.30;1.80;;;3.00;67.00;;;;;;5046870;28;20977;-41
2021/03/20 06:58:38;;;;;;;1.67;1.57;;;3.10;67.00;;;;;;5054398;28;20450;-41
2021/03/20 07:01:28;;;;;;;4.13;1.97;;;3.10;66.50;;;;;;5058183;28;20459;-41
2021/03/20 07:04:18;;;;;;;3.00;2.10;;;3.20;66.70;;;;;;5046313;28;20463;-41
2021/03/20 07:07:17;;;;;;;5.63;2.10;;;3.30;65.90;;;;;;5047578;28;20451;-41
2021/03/20 07:09:49;;;;;;;1.90;1.57;;;3.30;65.10;;;;;;5063472;28;20461;-40
2021/03/20 07:12:25;;;;;;;4.10;2.00;;;3.40;64.80;;;;;;5048359;28;20521;-41
2021/03/20 07:14:55;;;;;;;2.37;1.87;;;3.40;64.40;;;;;;5049805;28;20458;-41
2021/03/20 07:17:25;;;;;;;2.87;1.93;;;3.40;64.50;;;;;;5050352;28;20485;-40
2021/03/20 07:20:06;;;;;;;2.13;1.50;;;3.50;63.70;;;;;;5049996;28;20462;-40
2021/03/20 07:22:35;;;;;;;1.70;1.50;;;3.50;63.70;;;;;;5053855;28;20516;-41
2021/03/20 07:25:18;;;;;;;2.33;1.37;;;3.50;63.20;;;;;;5067999;28;20450;-41
2021/03/20 07:27:45;;;;;;;2.33;1.27;;;3.50;62.80;;;;;;5068430;28;20458;-41
2021/03/20 07:30:39;;;;;;;3.73;1.43;;;3.50;63.20;;;;;;5052788;28;20462;-41
2021/03/20 07:33:26;;;;;;;1.93;1.50;;;3.50;63.80;;;;;;5053475;28;20539;-41
2021/03/20 07:36:15;;;;;;;1.83;1.70;;;3.60;64.00;;;;;;5055236;28;21006;-41
2021/03/20 07:38:45;;;;;;;1.50;1.40;;;3.60;62.30;;;;;;5065851;28;20537;-41
2021/03/20 07:41:15;;;;;;;1.83;1.33;;;3.70;61.20;;;;;;5052688;28;20530;-41
2021/03/20 07:43:56;;;;;;;3.03;1.80;;;3.70;61.90;;;;;;5067610;28;20822;-41
2021/03/20 07:46:24;;;;;;;4.90;2.30;;;3.70;61.90;;;;;;5070240;28;20477;-41
2021/03/20 07:49:00;;;;;;;2.77;1.87;;;3.80;61.40;;;;;;5053028;28;20486;-41
2021/03/20 07:51:27;;;;;;;2.00;1.90;;;3.80;61.20;;;;;;5053033;28;20442;-41
2021/03/20 07:53:54;;;;;;;2.40;1.80;;;3.80;60.80;;;;;;5052218;28;20478;-41
2021/03/20 07:56:29;;;;;;;5.23;1.73;;;3.90;60.90;;;;;;5065463;28;20454;-41
2021/03/20 07:59:23;;;;;;;10.77;7.93;;;4.00;60.50;;;;;;5054151;28;20561;-41
2021/03/20 08:01:55;;;;;;;6.57;5.77;;;4.10;60.20;;;;;;5066992;28;21028;-41
2021/03/20 08:04:53;;;;;;;4.47;2.33;;;4.20;59.10;;;;;;5052633;28;20465;-41
2021/03/20 08:07:34;;;;;;;4.80;2.73;;;4.30;59.00;;;;;;5051979;28;21097;-40
2021/03/20 08:10:19;;;;;;;2.40;2.20;;;4.50;59.20;;;;;;5067869;28;20459;-41
2021/03/20 08:12:53;;;;;;;4.60;2.70;;;4.60;59.20;;;;;;5049695;28;20492;-40
2021/03/20 08:15:24;;;;;;;3.13;2.10;;;4.70;58.10;;;;;;5050396;28;20532;-40
2021/03/20 08:17:51;;;;;;;5.33;2.90;;;4.80;57.90;;;;;;5050255;28;20494;-40
2021/03/20 08:20:18;;;;;;;2.47;1.47;;;5.00;57.90;;;;;;5051847;28;20459;-40
2021/03/20 08:23:13;;;;;;;5.30;2.37;;;5.10;56.10;;;;;;5051756;28;20463;-41
2021/03/20 08:25:58;;;;;;;2.43;1.83;;;5.30;55.60;;;;;;5043349;28;20462;-41
2021/03/20 08:28:39;;;;;;;3.63;2.77;;;5.50;56.30;;;;;;5051306;28;20546;-41
2021/03/20 08:31:24;;;;;;;4.00;1.63;;;5.60;56.10;;;;;;5047333;28;20458;-41
2021/03/20 08:34:18;;;;;;;5.43;2.00;;;5.70;54.90;;;;;;5051928;28;20483;-41
2021/03/20 08:37:06;;;;;;;3.40;2.57;;;5.70;54.70;;;;;;5053366;28;20451;-41
2021/03/20 08:40:12;;;;;;;2.63;2.20;;;5.80;55.00;;;;;;5051549;28;20545;-41
2021/03/20 08:43:18;;;;;;;4.00;2.60;;;5.80;54.80;;;;;;5052642;28;20465;-40
2021/03/20 08:46:13;;;;;;;1.47;1.37;;;5.90;53.30;;;;;;5049388;28;20549;-40
2021/03/20 08:48:48;;;;;;;2.70;1.80;;;6.10;52.40;;;;;;5051380;28;20528;-40
2021/03/20 08:51:40;;;;;;;2.90;1.40;;;6.30;50.10;;;;;;5051782;28;20464;-40
2021/03/20 08:54:30;;;;;;;1.00;1.00;;;6.70;49.00;;;;;;5048398;28;20486;-40
2021/03/20 08:57:21;;;;;;;1.80;1.43;;;6.90;48.10;;;;;;5050055;28;20443;-40
2021/03/20 08:59:52;;;;;;;1.40;1.13;;;6.90;46.30;;;;;;5052206;28;20468;-40
2021/03/20 09:02:33;;;;;;;3.13;1.30;;;6.90;45.80;;;;;;5066898;28;20457;-40
2021/03/20 09:05:30;;;;;;;2.00;1.50;;;6.80;45.80;;;;;;5049876;28;20619;-40
2021/03/20 09:08:23;;;;;;;1.50;1.00;;;6.70;46.90;;;;;;5067915;28;20451;-40
2021/03/20 09:11:27;;;;;;;3.40;1.40;;;6.70;48.20;;;;;;5051351;28;21026;-40
2021/03/20 09:14:09;;;;;;;2.30;1.07;;;6.80;48.50;;;;;;5051751;28;20488;-40
2021/03/20 09:16:38;;;;;;;1.57;1.40;;;6.90;48.10;;;;;;5062162;28;20582;-40
2021/03/20 09:19:09;;;;;;;1.50;1.30;;;7.10;48.60;;;;;;5048754;28;20501;-40
2021/03/20 09:21:38;;;;;;;3.90;1.43;;;7.30;48.40;;;;;;5049042;28;20470;-40
2021/03/20 09:24:09;;;;;;;1.87;1.47;;;7.50;46.70;;;;;;5052141;28;20466;-40
2021/03/20 09:26:39;;;;;;;3.23;1.33;;;7.60;46.00;;;;;;5050546;28;20459;-40
2021/03/20 09:29:22;;;;;;;4.70;1.57;;;7.90;45.90;;;;;;5051480;28;20541;-40
2021/03/20 09:31:54;;;;;;;2.20;1.50;;;8.10;45.70;;;;;;5067175;28;20447;-40
2021/03/20 09:34:30;;;;;;;1.90;1.13;;;8.40;45.00;;;;;;5046945;28;20553;-40
2021/03/20 09:36:57;;;;;;;1.77;1.57;;;8.50;42.40;;;;;;5048932;28;20442;-40
2021/03/20 09:39:48;;;;;;;2.70;1.20;;;8.60;42.10;;;;;;5048793;28;20466;-40
2021/03/20 09:42:27;;;;;;;2.70;1.27;;;8.70;42.40;;;;;;5046860;28;20500;-40
2021/03/20 09:44:57;;;;;;;1.50;1.30;;;8.70;42.80;;;;;;5048051;28;20817;-40
2021/03/20 09:47:32;;;;;;;1.33;1.23;;;8.90;41.70;;;;;;5049781;28;20455;-40
2021/03/20 09:50:33;;;;;;;3.77;2.30;;;9.10;41.30;;;;;;5060437;28;20559;-40
2021/03/20 09:53:09;;;;;;;1.57;1.47;;;9.30;40.30;;;;;;5027849;28;21004;-40
2021/03/20 09:55:47;;;;;;;3.00;1.53;;;9.50;39.80;;;;;;5066345;28;20496;-40
2021/03/20 09:58:19;;;;;;;1.63;1.50;;;9.80;40.50;;;;;;5049429;28;20450;-40
2021/03/20 10:01:03;;;;;;;2.60;1.60;;;10.10;40.30;;;;;;5048056;28;20813;-40
2021/03/20 10:03:46;;;;;;;1.80;1.20;;;10.30;38.30;;;;;;5048989;28;20572;-40
2021/03/20 10:06:12;;;;;;;2.70;1.63;;;10.40;36.90;;;;;;5049490;28;20450;-40
2021/03/20 10:08:48;;;;;;;1.60;1.50;;;10.50;37.50;;;;;;5050878;28;20538;-40
2021/03/20 10:11:40;;;;;;;15.53;2.50;;;10.60;36.30;;;;;;5047368;28;20450;-40
2021/03/20 10:14:26;;;;;;;5.47;1.57;;;10.70;35.50;;;;;;5050185;28;20485;-40
2021/03/20 10:17:16;;;;;;;5.77;1.50;;;10.80;35.30;;;;;;5048449;28;20909;-40
2021/03/20 10:19:47;;;;;;;2.20;1.40;;;11.00;36.50;;;;;;5044656;28;20439;-40
2021/03/20 10:22:48;;;;;;;3.27;1.43;;;11.20;36.50;;;;;;5048919;28;20438;-40
2021/03/20 10:25:15;;;;;;;4.20;1.07;;;11.50;37.00;;;;;;5041455;28;20465;-40
2021/03/20 10:27:52;;;;;;;8.90;1.50;;;11.70;34.40;;;;;;5045899;28;20439;-40
2021/03/20 10:30:26;;;;;;;12.90;1.77;;;11.90;34.40;;;;;;5050069;28;20442;-40
2021/03/20 10:33:04;;;;;;;11.10;2.63;;;12.10;34.20;;;;;;5049073;28;20482;-40
2021/03/20 10:35:35;;;;;;;7.50;3.10;;;12.40;33.80;;;;;;5050113;28;20990;-40
2021/03/20 10:38:37;;;;;;;4.93;2.27;;;12.70;34.10;;;;;;5047903;28;20953;-40
2021/03/20 10:41:03;;;;;;;3.70;1.30;;;13.00;33.80;;;;;;5006537;28;20472;-40
2021/03/20 10:43:38;;;;;;;2.30;1.23;;;13.10;34.00;;;;;;5039979;28;20450;-40
2021/03/20 10:46:04;;;;;;;2.23;1.20;;;13.20;33.10;;;;;;5049086;28;20910;-40
2021/03/20 10:48:32;;;;;;;5.03;1.57;;;13.30;33.20;;;;;;5049852;28;20985;-41
2021/03/20 10:51:02;;;;;;;18.40;3.33;;;13.30;32.00;;;;;;5049433;28;20444;-40
2021/03/20 10:53:33;;;;;;;4.13;1.10;;;13.30;32.20;;;;;;5049069;28;20559;-40
2021/03/20 10:56:02;;;;;;;1.53;1.10;;;13.40;32.30;;;;;;5052093;28;20509;-40
2021/03/20 10:58:33;;;;;;;12.87;2.40;;;13.40;30.30;;;;;;5054057;28;20971;-40
2021/03/20 11:01:00;;;;;;;19.97;4.10;;;13.40;31.70;;;;;;5052006;28;20458;-40
2021/03/20 11:03:29;;;;;;;10.53;2.90;;;13.50;31.40;;;;;;5052804;28;20911;-40
2021/03/20 11:06:09;;;;;;;18.17;2.93;;;13.60;30.50;;;;;;5053215;28;20451;-40
2021/03/20 11:08:37;;;;;;;3.20;1.40;;;13.70;30.40;;;;;;5052818;28;20451;-40
2021/03/20 11:11:24;;;;;;;13.77;3.10;;;13.70;30.90;;;;;;5051596;28;20502;-40
2021/03/20 11:13:52;;;;;;;4.30;1.67;;;13.80;30.50;;;;;;5066069;28;20576;-40
2021/03/20 11:16:23;;;;;;;2.70;1.53;;;13.80;30.40;;;;;;5062943;28;20638;-40
2021/03/20 11:18:55;;;;;;;3.23;2.37;;;13.90;30.20;;;;;;5052084;28;20497;-40
2021/03/20 11:21:35;;;;;;;1.43;1.17;;;13.90;31.30;;;;;;5067400;28;20533;-40
2021/03/20 11:24:15;;;;;;;1.47;1.37;;;13.90;32.20;;;;;;5051486;28;20470;-40
2021/03/20 11:26:47;;;;;;;2.20;1.80;;;13.90;32.70;;;;;;5049583;28;21009;-40
2021/03/20 11:29:20;;;;;;;3.57;1.43;;;13.90;31.90;;;;;;5052880;28;20458;-40
2021/03/20 11:31:51;;;;;;;3.40;1.27;;;13.80;31.10;;;;;;5052257;28;21016;-40
2021/03/20 11:34:24;;;;;;;2.30;1.50;;;13.60;30.40;;;;;;5051162;28;21026;-40
2021/03/20 11:36:52;;;;;;;2.20;1.10;;;13.40;30.50;;;;;;5052398;28;20458;-40
2021/03/20 11:39:20;;;;;;;1.40;1.00;;;13.30;30.10;;;;;;5052488;28;20521;-40
2021/03/20 11:41:57;;;;;;;1.33;1.10;;;13.20;28.20;;;;;;5049531;28;20459;-40
2021/03/20 11:44:26;;;;;;;1.37;1.07;;;12.90;30.80;;;;;;5051496;28;20620;-40
2021/03/20 11:46:57;;;;;;;1.77;1.20;;;12.60;30.50;;;;;;5052398;28;20549;-40
2021/03/20 11:49:43;;;;;;;2.73;1.37;;;12.40;31.50;;;;;;5051621;28;20549;-40
2021/03/20 11:52:30;;;;;;;2.73;2.50;;;12.20;32.50;;;;;;5051618;28;20450;-40
2021/03/20 11:55:04;;;;;;;4.00;2.20;;;12.10;33.00;;;;;;5053014;28;20440;-40
2021/03/20 11:57:38;;;;;;;4.30;2.90;;;12.00;33.50;;;;;;5053255;28;20509;-40
2021/03/20 12:00:29;;;;;;;3.00;1.60;;;11.90;33.20;;;;;;5066002;28;20525;-40
2021/03/20 12:02:59;;;;;;;5.17;2.83;;;11.90;33.70;;;;;;5051942;28;20459;-40
2021/03/20 12:05:36;;;;;;;2.40;1.80;;;11.90;33.60;;;;;;5052267;28;20438;-40
2021/03/20 12:08:11;;;;;;;1.77;1.37;;;11.80;32.50;;;;;;5051464;28;20994;-40
2021/03/20 12:10:56;;;;;;;2.20;1.83;;;11.70;33.30;;;;;;5050538;28;20452;-40
2021/03/20 12:13:57;;;;;;;1.83;1.50;;;11.60;33.30;;;;;;5051272;28;20478;-40
2021/03/20 12:16:36;;;;;;;1.90;1.70;;;11.50;32.00;;;;;;5065212;28;20482;-40
2021/03/20 12:19:15;;;;;;;2.80;1.60;;;11.30;32.80;;;;;;5049106;28;20557;-40
2021/03/20 12:22:02;;;;;;;2.20;1.50;;;11.20;34.10;;;;;;5050260;28;20504;-40
2021/03/20 12:24:47;;;;;;;3.80;2.20;;;11.10;33.60;;;;;;5049898;28;20446;-40
2021/03/20 12:27:26;;;;;;;10.77;4.60;;;11.10;34.70;;;;;;5049792;28;20482;-40
2021/03/20 12:30:23;;;;;;;2.83;2.27;;;11.20;35.90;;;;;;5050709;28;20468;-40
2021/03/20 12:32:54;;;;;;;12.67;5.17;;;11.20;35.50;;;;;;5050637;28;20566;-40
2021/03/20 12:35:29;;;;;;;2.60;2.40;;;11.20;35.50;;;;;;5051645;28;20451;-40
2021/03/20 12:38:27;;;;;;;4.17;2.57;;;11.20;34.40;;;;;;5050580;28;20949;-40
2021/03/20 12:40:59;;;;;;;5.40;2.17;;;11.30;34.80;;;;;;5050775;28;20442;-40
2021/03/20 12:43:31;;;;;;;2.37;1.50;;;11.30;35.10;;;;;;5049550;28;20955;-40
2021/03/20 12:45:59;;;;;;;1.60;1.30;;;11.30;35.70;;;;;;5050480;28;20530;-40
2021/03/20 12:48:26;;;;;;;1.60;1.50;;;11.30;35.20;;;;;;5049669;28;20458;-40
2021/03/20 12:51:06;;;;;;;3.97;1.67;;;11.20;36.60;;;;;;5054721;28;20820;-40
2021/03/20 12:53:32;;;;;;;2.90;1.60;;;11.10;36.20;;;;;;5048669;28;20482;-40
2021/03/20 12:55:59;;;;;;;3.50;1.67;;;11.10;36.30;;;;;;5048352;28;20608;-40
2021/03/20 12:58:25;;;;;;;3.37;1.70;;;11.00;35.60;;;;;;5051201;28;20455;-40
2021/03/20 13:00:52;;;;;;;3.03;2.17;;;11.00;34.90;;;;;;5049744;28;20521;-40
2021/03/20 13:03:20;;;;;;;6.47;3.60;;;10.90;35.90;;;;;;5049435;28;20470;-40
2021/03/20 13:05:47;;;;;;;5.90;3.33;;;10.80;36.70;;;;;;5061226;28;20458;-40
2021/03/20 13:08:13;;;;;;;5.63;3.53;;;10.80;36.50;;;;;;5048837;28;20465;-40
2021/03/20 13:10:40;;;;;;;4.77;3.13;;;10.90;35.70;;;;;;5050337;28;20462;-40
2021/03/20 13:13:08;;;;;;;4.20;2.10;;;11.00;36.90;;;;;;5047451;28;20482;-40
2021/03/20 13:15:35;;;;;;;5.37;2.70;;;11.00;35.40;;;;;;5048720;28;20784;-40
2021/03/20 13:18:02;;;;;;;4.23;2.40;;;11.00;35.80;;;;;;5049984;28;20870;-40
2021/03/20 13:20:42;;;;;;;5.03;3.07;;;11.10;35.70;;;;;;5047728;28;20979;-40
2021/03/20 13:23:11;;;;;;;10.80;5.60;;;11.10;36.30;;;;;;5048051;28;20467;-40
2021/03/20 13:25:40;;;;;;;12.73;4.87;;;11.20;36.30;;;;;;5050011;28;20472;-40
2021/03/20 13:28:11;;;;;;;6.40;2.50;;;11.20;36.40;;;;;;5046794;28;20473;-40
2021/03/20 13:30:42;;;;;;;3.70;3.40;;;11.30;36.20;;;;;;5047850;28;20470;-40
2021/03/20 13:33:09;;;;;;;3.00;2.10;;;11.30;36.50;;;;;;5047316;28;20497;-40
2021/03/20 13:35:38;;;;;;;2.60;1.90;;;11.30;36.30;;;;;;5048752;28;20447;-40
2021/03/20 13:38:06;;;;;;;3.70;2.77;;;11.40;35.40;;;;;;5046597;28;21015;-40
2021/03/20 13:40:33;;;;;;;3.10;2.47;;;11.40;35.40;;;;;;5058748;28;20469;-40
2021/03/20 13:43:02;;;;;;;1.93;1.70;;;11.40;37.30;;;;;;5050378;28;20459;-40
2021/03/20 13:45:30;;;;;;;2.43;1.90;;;11.40;36.90;;;;;;5047072;28;20463;-40